Time;durP1;ratioP1;P1;durP2;ratioP2;P2;SDS_P1;SDS_P2;PMS_P1;PMS_P2;Temp;Humidity;BMP_temperature;BMP_pressure;BME280_temperature;BME280_humidity;BME280_pressure;Samples;Min_cycle;Max_cycle;Signal;HPM_P1;HPM_P2
2022/09/10 00:00:33;;;;;;;31.73;18.02;;;13.80;99.90;;;;;;5045479;28;20613;-55
2022/09/10 00:03:01;;;;;;;30.52;18.40;;;13.90;99.90;;;;;;5044880;28;20506;-55
2022/09/10 00:05:27;;;;;;;48.55;21.67;;;13.50;99.90;;;;;;5045798;28;20052;-55
2022/09/10 00:07:53;;;;;;;32.40;18.55;;;14.00;99.90;;;;;;5046791;28;20086;-55
2022/09/10 00:10:19;;;;;;;35.35;19.90;;;13.50;99.90;;;;;;5049043;28;20056;-56
2022/09/10 00:12:47;;;;;;;32.15;19.50;;;14.30;99.90;;;;;;5048404;28;20044;-56
2022/09/10 00:15:16;;;;;;;83.43;25.75;;;13.90;99.90;;;;;;5048200;28;20045;-55
2022/09/10 00:17:43;;;;;;;35.28;20.70;;;13.50;99.90;;;;;;5048660;28;20048;-56
2022/09/10 00:20:09;;;;;;;69.32;24.38;;;13.80;99.90;;;;;;5047058;28;20507;-55
2022/09/10 00:22:35;;;;;;;39.33;20.48;;;13.50;99.90;;;;;;5048590;28;20043;-53
2022/09/10 00:25:01;;;;;;;33.88;21.00;;;13.90;99.90;;;;;;5048123;28;20491;-55
2022/09/10 00:27:26;;;;;;;66.45;24.50;;;13.80;99.90;;;;;;5048917;28;20041;-55
2022/09/10 00:29:53;;;;;;;35.92;20.33;;;14.00;99.90;;;;;;5048435;28;20094;-55
2022/09/10 00:32:20;;;;;;;39.63;22.60;;;13.70;99.90;;;;;;5048342;28;20076;-55
2022/09/10 00:34:47;;;;;;;35.90;20.85;;;13.50;99.90;;;;;;5048950;28;20445;-55
2022/09/10 00:37:15;;;;;;;38.28;23.13;;;14.50;99.90;;;;;;5047952;28;20052;-55
2022/09/10 00:39:40;;;;;;;71.03;25.42;;;13.80;99.90;;;;;;5048282;28;20440;-55
2022/09/10 00:42:10;;;;;;;99.15;28.65;;;13.50;99.90;;;;;;5048185;28;20048;-56
2022/09/10 00:44:38;;;;;;;54.63;24.95;;;13.30;99.90;;;;;;5048238;28;20128;-55
2022/09/10 00:47:18;;;;;;;36.92;21.63;;;14.00;99.90;;;;;;5048133;28;20478;-55
2022/09/10 00:49:48;;;;;;;35.20;20.73;;;13.40;99.90;;;;;;5048398;28;20076;-55
2022/09/10 00:52:14;;;;;;;39.72;22.73;;;13.40;99.90;;;;;;5047797;28;20490;-55
2022/09/10 00:54:42;;;;;;;46.38;22.77;;;13.40;99.90;;;;;;5048012;28;20491;-55
2022/09/10 00:57:12;;;;;;;75.63;26.10;;;13.80;99.90;;;;;;5047774;28;20499;-55
2022/09/10 00:59:42;;;;;;;42.65;23.88;;;13.80;99.90;;;;;;5048700;28;20083;-55
2022/09/10 01:02:07;;;;;;;45.25;23.58;;;14.20;99.90;;;;;;5047734;28;20040;-55
2022/09/10 01:04:34;;;;;;;91.97;29.70;;;13.40;99.90;;;;;;5047841;28;20041;-55
2022/09/10 01:07:00;;;;;;;42.97;24.65;;;13.60;99.90;;;;;;5048009;28;20063;-54
2022/09/10 01:09:27;;;;;;;71.20;29.10;;;13.60;99.90;;;;;;5048297;28;20047;-56
2022/09/10 01:11:59;;;;;;;73.20;26.98;;;13.60;99.90;;;;;;5048462;28;20182;-55
2022/09/10 01:14:40;;;;;;;97.10;30.70;;;13.70;99.90;;;;;;5047627;28;20057;-56
2022/09/10 01:17:36;;;;;;;51.47;26.90;;;13.50;99.90;;;;;;5047681;28;20037;-55
2022/09/10 01:20:20;;;;;;;63.65;28.30;;;13.50;99.90;;;;;;5046318;28;20064;-55
2022/09/10 01:23:14;;;;;;;51.72;26.77;;;13.50;99.90;;;;;;5047470;28;20107;-55
2022/09/10 01:25:48;;;;;;;60.13;27.38;;;13.50;99.90;;;;;;5047534;28;20517;-56
2022/09/10 01:28:37;;;;;;;47.55;25.85;;;13.80;99.90;;;;;;5047023;28;20583;-55
2022/09/10 01:31:27;;;;;;;99.53;32.00;;;14.60;99.90;;;;;;5046891;28;20408;-55
2022/09/10 01:34:02;;;;;;;42.55;25.20;;;13.90;99.90;;;;;;5047910;28;20053;-55
2022/09/10 01:36:33;;;;;;;46.88;28.00;;;13.50;99.90;;;;;;5047780;28;20049;-55
2022/09/10 01:39:01;;;;;;;104.70;32.93;;;13.70;99.90;;;;;;5047691;28;20049;-55
2022/09/10 01:41:27;;;;;;;53.75;27.83;;;14.00;99.90;;;;;;5047951;28;20267;-54
2022/09/10 01:43:53;;;;;;;80.32;31.25;;;13.60;99.90;;;;;;5047643;28;20041;-55
2022/09/10 01:46:36;;;;;;;84.90;30.63;;;13.90;99.90;;;;;;5047491;28;20084;-55
2022/09/10 01:49:33;;;;;;;54.60;26.98;;;13.70;99.90;;;;;;5047334;28;20491;-55
2022/09/10 01:52:25;;;;;;;43.90;26.20;;;13.70;99.90;;;;;;5047350;28;20422;-56
2022/09/10 01:55:19;;;;;;;42.90;27.40;;;13.80;99.90;;;;;;5047158;28;20174;-56
2022/09/10 01:57:51;;;;;;;51.67;27.73;;;13.80;99.90;;;;;;5047290;28;20048;-55
2022/09/10 02:00:20;;;;;;;52.13;27.27;;;13.80;99.90;;;;;;5047272;28;20053;-56
2022/09/10 02:03:10;;;;;;;49.65;27.65;;;13.80;99.90;;;;;;5047231;28;20093;-56
2022/09/10 02:05:38;;;;;;;51.22;28.23;;;14.20;99.90;;;;;;5046885;28;20040;-55
2022/09/10 02:08:10;;;;;;;65.80;30.48;;;14.00;99.90;;;;;;5046972;28;20052;-55
2022/09/10 02:10:53;;;;;;;;;;;14.10;99.90;;;;;;5047330;28;20053;-55
2022/09/10 02:13:19;;;;;;;54.80;29.02;;;13.80;99.90;;;;;;5046806;28;19920;-55
2022/09/10 02:15:47;;;;;;;103.03;33.60;;;13.80;99.90;;;;;;5046469;28;20099;-56
2022/09/10 02:18:12;;;;;;;63.00;30.48;;;13.90;99.90;;;;;;5046363;28;20052;-56
2022/09/10 02:20:39;;;;;;;131.43;37.30;;;14.20;99.90;;;;;;5046106;28;20420;-56
2022/09/10 02:23:06;;;;;;;64.05;32.15;;;14.30;99.90;;;;;;5046191;28;20048;-55
2022/09/10 02:25:33;;;;;;;88.50;34.83;;;13.90;99.90;;;;;;5046114;28;20049;-55
2022/09/10 02:27:59;;;;;;;83.53;32.47;;;14.10;99.90;;;;;;5046595;28;20052;-55
2022/09/10 02:30:25;;;;;;;169.70;40.58;;;13.90;99.90;;;;;;5046111;28;20045;-55
2022/09/10 02:32:51;;;;;;;75.20;33.33;;;14.20;99.90;;;;;;5046321;28;20076;-56
2022/09/10 02:35:16;;;;;;;53.95;29.20;;;14.20;99.90;;;;;;5046002;28;20041;-55
2022/09/10 02:37:42;;;;;;;65.68;31.38;;;14.20;99.90;;;;;;5046026;28;20045;-55
2022/09/10 02:40:09;;;;;;;110.88;34.58;;;13.90;99.90;;;;;;5046376;28;20059;-56
2022/09/10 02:42:36;;;;;;;92.78;33.28;;;13.90;99.90;;;;;;5046148;28;20045;-55
2022/09/10 02:45:02;;;;;;;65.20;30.55;;;14.30;99.90;;;;;;5046223;28;20128;-55
2022/09/10 02:47:28;;;;;;;52.65;29.38;;;13.90;99.90;;;;;;5044515;28;20139;-55
2022/09/10 02:49:54;;;;;;;53.08;29.17;;;14.00;99.90;;;;;;5046233;28;20053;-55
2022/09/10 02:52:20;;;;;;;63.83;31.27;;;13.90;99.90;;;;;;5046028;28;20469;-55
2022/09/10 02:54:49;;;;;;;59.70;28.52;;;14.10;99.90;;;;;;5046289;28;20047;-55
2022/09/10 02:57:15;;;;;;;83.35;32.03;;;14.30;99.90;;;;;;5046552;28;20048;-55
2022/09/10 02:59:40;;;;;;;59.05;29.67;;;13.90;99.90;;;;;;5044784;28;20076;-56
2022/09/10 03:02:06;;;;;;;78.47;31.65;;;13.90;99.90;;;;;;5046260;28;20455;-54
2022/09/10 03:04:32;;;;;;;53.67;28.17;;;14.20;99.90;;;;;;5046100;28;20108;-55
2022/09/10 03:06:57;;;;;;;52.25;28.35;;;13.90;99.90;;;;;;5046676;28;20444;-55
2022/09/10 03:09:23;;;;;;;48.50;28.52;;;14.40;99.90;;;;;;5046071;28;20056;-55
2022/09/10 03:11:50;;;;;;;58.65;31.23;;;13.90;99.90;;;;;;5046459;28;20049;-56
2022/09/10 03:14:19;;;;;;;98.82;34.05;;;13.90;99.90;;;;;;5046344;28;20172;-55
2022/09/10 03:16:46;;;;;;;51.63;28.20;;;14.30;99.90;;;;;;5046345;28;20388;-56
2022/09/10 03:19:13;;;;;;;66.35;30.60;;;13.90;99.90;;;;;;5046015;28;20448;-55
2022/09/10 03:21:40;;;;;;;58.33;29.60;;;14.00;99.90;;;;;;5045940;28;20045;-54
2022/09/10 03:24:06;;;;;;;71.38;31.25;;;14.10;99.90;;;;;;5046152;28;20045;-55
2022/09/10 03:26:32;;;;;;;61.10;30.15;;;13.90;99.90;;;;;;5046025;28;20044;-55
2022/09/10 03:28:57;;;;;;;52.58;28.27;;;13.90;99.90;;;;;;5046080;28;20479;-55
2022/09/10 03:31:25;;;;;;;60.85;30.90;;;13.90;99.90;;;;;;5046142;28;20128;-55
2022/09/10 03:33:51;;;;;;;56.67;30.33;;;13.80;99.90;;;;;;5045969;28;20084;-56
2022/09/10 03:36:17;;;;;;;96.72;35.30;;;13.70;99.90;;;;;;5045608;28;20092;-55
2022/09/10 03:38:43;;;;;;;69.07;31.50;;;14.30;99.90;;;;;;5044541;28;20051;-55
2022/09/10 03:41:10;;;;;;;57.50;29.83;;;13.80;99.90;;;;;;5046206;28;20064;-55
2022/09/10 03:43:35;;;;;;;82.90;33.95;;;14.00;99.90;;;;;;5048316;28;20045;-54
2022/09/10 03:46:02;;;;;;;72.82;32.05;;;14.70;99.90;;;;;;5049771;28;20048;-55
2022/09/10 03:48:28;;;;;;;53.78;29.38;;;14.40;99.90;;;;;;5049487;28;20076;-55
2022/09/10 03:50:55;;;;;;;57.78;30.65;;;13.80;99.90;;;;;;5049572;28;20140;-55
2022/09/10 03:53:21;;;;;;;100.68;36.53;;;14.10;99.90;;;;;;5049161;28;20570;-55
2022/09/10 03:55:49;;;;;;;62.72;31.77;;;13.80;99.90;;;;;;5049297;28;20056;-56
2022/09/10 03:58:16;;;;;;;62.40;30.92;;;14.00;99.90;;;;;;5049396;28;20041;-56
2022/09/10 04:00:43;;;;;;;83.22;33.17;;;14.00;99.90;;;;;;5049653;28;20036;-55
2022/09/10 04:03:09;;;;;;;56.40;29.33;;;14.00;99.90;;;;;;5049453;28;20047;-55
2022/09/10 04:05:39;;;;;;;66.25;30.45;;;13.80;99.90;;;;;;5048885;28;20055;-55
2022/09/10 04:08:06;;;;;;;60.28;31.08;;;14.20;99.90;;;;;;5048892;28;20048;-55
2022/09/10 04:10:32;;;;;;;58.67;30.02;;;14.20;99.90;;;;;;5048923;28;20045;-54
2022/09/10 04:12:58;;;;;;;66.43;32.47;;;13.70;99.90;;;;;;5048774;28;20606;-56
2022/09/10 04:15:25;;;;;;;130.27;36.15;;;14.00;99.90;;;;;;5048844;28;20087;-55
2022/09/10 04:17:50;;;;;;;66.03;32.45;;;14.10;99.90;;;;;;5048707;28;20375;-56
2022/09/10 04:20:20;;;;;;;64.75;30.77;;;14.00;99.90;;;;;;5048932;28;20067;-55
2022/09/10 04:22:46;;;;;;;64.22;30.38;;;13.80;99.90;;;;;;5048782;28;20144;-56
2022/09/10 04:25:13;;;;;;;58.72;29.55;;;13.80;99.90;;;;;;5048901;28;20308;-55
2022/09/10 04:27:38;;;;;;;67.20;29.52;;;13.80;99.90;;;;;;5048784;28;20046;-55
2022/09/10 04:30:05;;;;;;;56.83;29.50;;;13.90;99.90;;;;;;5048727;28;20047;-54
2022/09/10 04:32:31;;;;;;;53.67;29.40;;;13.80;99.90;;;;;;5048905;28;20553;-55
2022/09/10 04:34:57;;;;;;;85.25;33.17;;;13.70;99.90;;;;;;5049046;28;20084;-55
2022/09/10 04:37:24;;;;;;;49.65;28.70;;;14.20;99.90;;;;;;5048820;28;20063;-55
2022/09/10 04:39:49;;;;;;;84.20;31.90;;;13.80;99.90;;;;;;5048668;28;20465;-56
2022/09/10 04:42:19;;;;;;;58.75;30.48;;;13.80;99.90;;;;;;5048469;28;20124;-55
2022/09/10 04:44:45;;;;;;;99.25;32.97;;;13.80;99.90;;;;;;5048521;28;20091;-56
2022/09/10 04:47:11;;;;;;;63.17;31.13;;;13.90;99.90;;;;;;5048491;28;20045;-56
2022/09/10 04:49:37;;;;;;;56.33;29.42;;;14.30;99.90;;;;;;5048407;28;20083;-55
2022/09/10 04:52:02;;;;;;;86.32;32.00;;;13.90;99.90;;;;;;5048148;28;20036;-54
2022/09/10 04:54:28;;;;;;;52.47;29.27;;;13.90;99.90;;;;;;5048458;28;20057;-55
2022/09/10 04:56:54;;;;;;;62.20;29.05;;;14.10;99.90;;;;;;5048095;28;20036;-55
2022/09/10 04:59:20;;;;;;;139.77;35.22;;;14.20;99.90;;;;;;5048210;28;20506;-56
2022/09/10 05:01:49;;;;;;;60.30;28.88;;;14.30;99.90;;;;;;5048233;28;20110;-55
2022/09/10 05:04:15;;;;;;;60.53;28.85;;;14.00;99.90;;;;;;5048226;28;20037;-56
2022/09/10 05:06:41;;;;;;;73.25;29.60;;;14.00;99.90;;;;;;5048021;28;20059;-55
2022/09/10 05:09:07;;;;;;;57.13;27.77;;;14.00;99.90;;;;;;5047969;28;20431;-56
2022/09/10 05:11:33;;;;;;;54.92;28.92;;;14.00;99.90;;;;;;5048005;28;20048;-56
2022/09/10 05:13:59;;;;;;;60.35;29.33;;;14.00;99.90;;;;;;5047646;28;20045;-55
2022/09/10 05:16:24;;;;;;;89.05;31.45;;;14.30;99.90;;;;;;5047811;28;20095;-54
2022/09/10 05:18:51;;;;;;;57.30;28.75;;;14.30;99.90;;;;;;5046282;28;20402;-56
2022/09/10 05:21:17;;;;;;;52.70;27.35;;;14.40;99.90;;;;;;5047854;28;20048;-55
2022/09/10 05:23:44;;;;;;;57.20;29.05;;;14.00;99.90;;;;;;5047679;28;20032;-56
2022/09/10 05:26:09;;;;;;;55.60;27.60;;;14.00;99.90;;;;;;5047681;28;20672;-56
2022/09/10 05:28:35;;;;;;;56.53;28.33;;;14.00;99.90;;;;;;5047303;28;20040;-55
2022/09/10 05:31:01;;;;;;;57.90;29.90;;;14.00;99.90;;;;;;5047109;28;20076;-55
2022/09/10 05:33:26;;;;;;;59.03;28.55;;;14.40;99.90;;;;;;5047623;28;20076;-54
2022/09/10 05:35:52;;;;;;;58.65;27.77;;;14.00;99.90;;;;;;5047461;28;20033;-55
2022/09/10 05:38:18;;;;;;;49.92;28.38;;;14.00;99.90;;;;;;5047799;28;20570;-55
2022/09/10 05:40:44;;;;;;;54.17;27.10;;;14.10;99.90;;;;;;5046954;28;20080;-55
2022/09/10 05:43:11;;;;;;;68.18;29.27;;;14.10;99.90;;;;;;5047445;28;20127;-56
2022/09/10 05:45:36;;;;;;;61.33;29.35;;;14.40;99.90;;;;;;5047354;28;20059;-55
2022/09/10 05:48:02;;;;;;;68.38;30.77;;;14.50;99.90;;;;;;5047174;28;20032;-55
2022/09/10 05:50:29;;;;;;;59.70;29.40;;;14.10;99.90;;;;;;5047613;28;20048;-55
2022/09/10 05:52:55;;;;;;;90.30;31.48;;;14.10;99.90;;;;;;5046199;28;20080;-55
2022/09/10 05:55:21;;;;;;;76.90;30.58;;;14.20;99.90;;;;;;5047027;28;20045;-55
2022/09/10 05:57:47;;;;;;;55.08;28.75;;;14.50;99.90;;;;;;5047551;28;20389;-55
2022/09/10 06:00:14;;;;;;;61.55;29.98;;;14.20;99.90;;;;;;5047230;28;20123;-55
2022/09/10 06:02:41;;;;;;;51.67;27.25;;;14.20;99.90;;;;;;5047509;28;20051;-55
2022/09/10 06:05:07;;;;;;;86.90;32.75;;;14.30;99.90;;;;;;5046671;28;20039;-55
2022/09/10 06:07:33;;;;;;;58.13;30.08;;;14.20;99.90;;;;;;5047313;28;20041;-55
2022/09/10 06:09:59;;;;;;;60.70;29.45;;;14.70;99.90;;;;;;5046736;28;20048;-56
2022/09/10 06:12:25;;;;;;;61.25;29.60;;;14.60;99.90;;;;;;5046883;28;20033;-55
2022/09/10 06:14:51;;;;;;;65.07;30.65;;;14.40;99.90;;;;;;5046793;28;20098;-55
2022/09/10 06:17:18;;;;;;;57.47;28.42;;;14.30;99.90;;;;;;5046687;28;20049;-55
2022/09/10 06:19:44;;;;;;;64.85;29.83;;;15.20;99.90;;;;;;5046317;28;20140;-55
2022/09/10 06:22:11;;;;;;;57.13;27.95;;;14.30;99.90;;;;;;5045974;28;20122;-55
2022/09/10 06:24:38;;;;;;;60.78;29.13;;;14.30;99.90;;;;;;5046148;28;20502;-55
2022/09/10 06:27:04;;;;;;;61.47;29.63;;;14.80;99.90;;;;;;5045963;28;20356;-54
2022/09/10 06:29:32;;;;;;;55.22;28.20;;;14.30;99.90;;;;;;5045711;28;20110;-55
2022/09/10 06:31:58;;;;;;;60.58;30.33;;;14.60;99.90;;;;;;5045868;28;20131;-55
2022/09/10 06:34:24;;;;;;;58.88;28.98;;;14.30;99.90;;;;;;5046224;28;20128;-55
2022/09/10 06:36:50;;;;;;;73.45;31.40;;;14.60;99.90;;;;;;5045918;28;20060;-55
2022/09/10 06:39:16;;;;;;;74.47;32.47;;;14.50;99.90;;;;;;5046370;28;20045;-55
2022/09/10 06:41:42;;;;;;;67.15;30.63;;;14.40;99.90;;;;;;5046659;28;20041;-55
2022/09/10 06:44:11;;;;;;;75.57;33.75;;;15.30;99.90;;;;;;5046359;28;20148;-55
2022/09/10 06:46:37;;;;;;;84.07;34.17;;;14.40;99.90;;;;;;5046404;28;20048;-55
2022/09/10 06:49:06;;;;;;;77.75;33.42;;;14.40;99.90;;;;;;5045997;28;20414;-55
2022/09/10 06:51:32;;;;;;;82.60;33.88;;;14.50;99.90;;;;;;5045935;28;20704;-55
2022/09/10 06:54:00;;;;;;;82.57;33.15;;;14.50;99.90;;;;;;5045373;28;20052;-56
2022/09/10 06:56:26;;;;;;;83.45;33.47;;;14.50;99.90;;;;;;5045782;28;20076;-55
2022/09/10 06:58:52;;;;;;;97.82;34.53;;;14.60;99.90;;;;;;5046040;28;20076;-55
2022/09/10 07:01:22;;;;;;;84.78;34.30;;;14.60;99.90;;;;;;5045786;28;20041;-55
2022/09/10 07:03:54;;;;;;;74.95;32.25;;;14.60;99.90;;;;;;5045873;28;20075;-55
2022/09/10 07:06:21;;;;;;;96.80;35.22;;;14.60;99.90;;;;;;5045948;28;20045;-55
2022/09/10 07:08:47;;;;;;;90.53;35.38;;;15.50;99.90;;;;;;5046120;28;20348;-55
2022/09/10 07:11:14;;;;;;;74.68;31.33;;;14.60;99.90;;;;;;5046072;28;20047;-55
2022/09/10 07:13:41;;;;;;;83.95;36.05;;;14.90;99.90;;;;;;5046129;28;20049;-55
2022/09/10 07:16:08;;;;;;;140.85;35.78;;;14.70;99.90;;;;;;5045702;28;20037;-55
2022/09/10 07:18:34;;;;;;;92.47;35.88;;;15.00;99.90;;;;;;5048772;28;20072;-55
2022/09/10 07:21:07;;;;;;;89.00;34.38;;;14.70;99.90;;;;;;5049404;28;20087;-55
2022/09/10 07:23:33;;;;;;;80.60;31.83;;;14.80;99.90;;;;;;5049815;28;20119;-55
2022/09/10 07:26:07;;;;;;;78.80;35.10;;;15.10;99.90;;;;;;5049835;28;20072;-54
2022/09/10 07:28:33;;;;;;;89.80;35.88;;;14.80;99.90;;;;;;5049751;28;20039;-54
2022/09/10 07:30:58;;;;;;;85.82;35.67;;;14.90;99.90;;;;;;5049765;28;20511;-53
2022/09/10 07:33:24;;;;;;;81.63;34.67;;;14.90;99.90;;;;;;5050659;28;20175;-53
2022/09/10 07:35:50;;;;;;;76.80;33.97;;;14.90;99.90;;;;;;5050605;28;20119;-55
2022/09/10 07:38:16;;;;;;;94.55;36.45;;;15.00;99.90;;;;;;5049264;28;20477;-55
2022/09/10 07:40:42;;;;;;;84.57;35.45;;;15.20;99.90;;;;;;5049376;28;20095;-55
2022/09/10 07:43:08;;;;;;;77.82;32.30;;;15.00;99.90;;;;;;5049338;28;20542;-56
2022/09/10 07:45:34;;;;;;;81.45;33.65;;;15.10;99.90;;;;;;5049704;28;20041;-54
2022/09/10 07:48:00;;;;;;;78.82;32.80;;;15.10;99.90;;;;;;5049588;28;20051;-54
2022/09/10 07:50:26;;;;;;;80.85;34.78;;;15.10;99.90;;;;;;5049397;28;20041;-55
2022/09/10 07:52:52;;;;;;;82.05;33.28;;;15.20;99.90;;;;;;5049537;28;20052;-55
2022/09/10 07:55:18;;;;;;;112.00;35.70;;;15.10;99.90;;;;;;5048618;28;20041;-55
2022/09/10 07:57:44;;;;;;;86.85;34.65;;;15.30;99.90;;;;;;5048943;28;20033;-56
2022/09/10 08:00:13;;;;;;;95.38;35.72;;;15.10;99.90;;;;;;5048602;28;20107;-55
2022/09/10 08:02:43;;;;;;;67.75;32.55;;;15.20;99.90;;;;;;5049254;28;20252;-55
2022/09/10 08:05:10;;;;;;;75.20;34.03;;;15.50;99.90;;;;;;5049052;28;20474;-55
2022/09/10 08:07:39;;;;;;;66.68;31.95;;;15.30;99.90;;;;;;5049460;28;20041;-55
2022/09/10 08:10:08;;;;;;;62.95;31.42;;;15.10;99.90;;;;;;5048920;28;20040;-54
2022/09/10 08:12:38;;;;;;;70.82;32.42;;;15.20;99.90;;;;;;5048075;28;20049;-54
2022/09/10 08:15:06;;;;;;;84.55;34.05;;;15.20;99.90;;;;;;5048794;28;20061;-55
2022/09/10 08:17:31;;;;;;;64.40;32.33;;;15.30;99.90;;;;;;5048965;28;20067;-55
2022/09/10 08:19:58;;;;;;;64.47;31.98;;;15.40;99.90;;;;;;5048524;28;20515;-55
2022/09/10 08:22:24;;;;;;;65.20;31.58;;;15.40;99.90;;;;;;5048914;28;20152;-55
2022/09/10 08:24:49;;;;;;;78.70;32.90;;;15.40;99.90;;;;;;5048525;28;20052;-55
2022/09/10 08:27:16;;;;;;;63.10;31.05;;;15.40;99.90;;;;;;5048842;28;20040;-55
2022/09/10 08:29:42;;;;;;;65.07;32.70;;;15.70;99.90;;;;;;5048464;28;20048;-55
2022/09/10 08:32:11;;;;;;;52.85;27.65;;;15.80;99.90;;;;;;5048184;28;20435;-55
2022/09/10 08:34:37;;;;;;;57.88;28.95;;;15.70;99.90;;;;;;5048721;28;20049;-55
2022/09/10 08:37:03;;;;;;;48.35;27.83;;;15.40;99.90;;;;;;5048690;28;20459;-55
2022/09/10 08:39:30;;;;;;;52.67;28.98;;;15.50;99.90;;;;;;5048814;28;20064;-55
2022/09/10 08:42:11;;;;;;;51.28;27.48;;;15.80;99.90;;;;;;5049016;28;20087;-55
2022/09/10 08:44:48;;;;;;;42.38;26.45;;;15.60;99.90;;;;;;5048022;28;20526;-55
2022/09/10 08:47:38;;;;;;;52.53;27.77;;;15.80;99.90;;;;;;5048569;28;20487;-55
2022/09/10 08:50:12;;;;;;;55.13;29.40;;;16.00;99.90;;;;;;5048996;28;20123;-55
2022/09/10 08:52:44;;;;;;;41.78;26.33;;;16.30;99.90;;;;;;5048997;28;20045;-55
2022/09/10 08:55:15;;;;;;;45.25;27.17;;;16.40;99.90;;;;;;5047963;28;20052;-55
2022/09/10 08:57:50;;;;;;;43.28;26.10;;;16.50;99.90;;;;;;5048628;28;20126;-56
2022/09/10 09:00:22;;;;;;;40.33;26.20;;;16.50;99.90;;;;;;5047814;28;20567;-55
2022/09/10 09:02:55;;;;;;;40.28;25.45;;;16.60;99.90;;;;;;5048434;28;20032;-56
2022/09/10 09:05:23;;;;;;;38.90;24.17;;;16.70;99.90;;;;;;5048513;28;20053;-56
2022/09/10 09:07:50;;;;;;;36.33;23.95;;;16.90;99.90;;;;;;5048209;28;20055;-55
2022/09/10 09:10:24;;;;;;;38.17;24.35;;;16.80;99.90;;;;;;5047587;28;20044;-55
2022/09/10 09:13:26;;;;;;;32.90;21.35;;;16.90;99.90;;;;;;5047745;28;20612;-56
2022/09/10 09:15:55;;;;;;;;;;;17.00;99.90;;;;;;5047911;28;20103;-55
2022/09/10 09:18:28;;;;;;;29.90;21.90;;;17.10;99.90;;;;;;5047195;28;19927;-55
2022/09/10 09:20:59;;;;;;;27.35;20.33;;;17.10;99.90;;;;;;5047419;28;20061;-55
2022/09/10 09:23:50;;;;;;;25.77;19.40;;;17.30;99.90;;;;;;5047229;28;20765;-55
2022/09/10 09:26:17;;;;;;;27.13;20.58;;;17.50;99.90;;;;;;5047630;28;20049;-55
2022/09/10 09:28:56;;;;;;;29.60;18.63;;;17.60;99.90;;;;;;5047506;28;20044;-56
2022/09/10 09:31:26;;;;;;;24.67;17.85;;;17.60;99.90;;;;;;5046939;28;20049;-55
2022/09/10 09:33:59;;;;;;;24.65;18.02;;;17.60;99.90;;;;;;5047294;28;20045;-55
2022/09/10 09:36:41;;;;;;;22.85;17.35;;;17.70;99.90;;;;;;5047207;28;20396;-55
2022/09/10 09:39:20;;;;;;;;;;;17.90;99.90;;;;;;5048019;28;20067;-55
2022/09/10 09:42:05;;;;;;;24.35;17.17;;;18.00;99.90;;;;;;5046545;28;20371;-56
2022/09/10 09:44:46;;;;;;;20.73;15.05;;;18.20;99.90;;;;;;5047051;28;20052;-53
2022/09/10 09:47:11;;;;;;;21.23;16.35;;;18.50;99.90;;;;;;5047164;28;20047;-55
2022/09/10 09:49:38;;;;;;;20.30;16.17;;;18.70;99.90;;;;;;5047465;28;20124;-55
2022/09/10 09:52:22;;;;;;;16.95;14.52;;;19.00;99.90;;;;;;5047546;28;20044;-55
2022/09/10 09:54:56;;;;;;;19.52;13.80;;;19.30;99.90;;;;;;5047400;28;20049;-55
2022/09/10 09:57:22;;;;;;;20.80;14.35;;;19.50;99.90;;;;;;5046949;28;20407;-55
2022/09/10 09:59:50;;;;;;;19.35;14.00;;;19.70;99.90;;;;;;5047072;28;20048;-55
2022/09/10 10:02:24;;;;;;;16.85;11.77;;;19.80;99.90;;;;;;5046964;28;20457;-55
2022/09/10 10:05:02;;;;;;;13.80;10.63;;;19.90;99.90;;;;;;5046654;28;20127;-56
2022/09/10 10:07:31;;;;;;;18.48;12.63;;;20.00;99.90;;;;;;5047495;28;20064;-53
2022/09/10 10:09:59;;;;;;;16.15;13.15;;;20.30;99.90;;;;;;5047220;28;20048;-55
2022/09/10 10:12:31;;;;;;;15.27;12.43;;;20.30;99.90;;;;;;5046878;28;20538;-55
2022/09/10 10:14:58;;;;;;;12.48;10.82;;;20.30;99.90;;;;;;5046291;28;20053;-55
2022/09/10 10:17:23;;;;;;;14.38;10.63;;;20.40;99.90;;;;;;5047239;28;20037;-56
2022/09/10 10:19:58;;;;;;;17.25;11.77;;;20.30;99.90;;;;;;5047508;28;20060;-56
2022/09/10 10:22:29;;;;;;;14.57;11.23;;;20.30;99.90;;;;;;5047501;28;20044;-55
2022/09/10 10:24:55;;;;;;;15.50;10.90;;;20.30;99.90;;;;;;5046870;28;20424;-56
2022/09/10 10:27:56;;;;;;;14.98;10.50;;;20.30;99.90;;;;;;5044867;28;20048;-56
2022/09/10 10:30:23;;;;;;;12.80;11.13;;;20.20;99.90;;;;;;5004058;28;20057;-56
2022/09/10 10:33:01;;;;;;;10.90;9.00;;;20.20;99.90;;;;;;5038264;28;20457;-56
2022/09/10 10:35:38;;;;;;;14.68;10.60;;;20.20;99.90;;;;;;5046102;28;20040;-55
2022/09/10 10:38:24;;;;;;;13.63;10.50;;;20.10;99.90;;;;;;5046614;28;20468;-55
2022/09/10 10:41:08;;;;;;;14.68;10.15;;;20.20;99.90;;;;;;5046677;28;20502;-56
2022/09/10 10:44:07;;;;;;;16.05;9.90;;;20.20;99.90;;;;;;5046569;28;20443;-55
2022/09/10 10:46:53;;;;;;;13.77;10.27;;;20.20;99.90;;;;;;5046779;28;20049;-55
2022/09/10 10:49:31;;;;;;;13.38;10.50;;;20.20;99.90;;;;;;5046519;28;20457;-55
2022/09/10 10:52:18;;;;;;;11.40;9.27;;;20.20;99.90;;;;;;5046156;28;20425;-56
2022/09/10 10:55:02;;;;;;;9.93;8.43;;;20.20;99.90;;;;;;5046188;28;20052;-56
2022/09/10 10:57:42;;;;;;;13.43;9.98;;;20.30;99.90;;;;;;5046213;28;20051;-55
2022/09/10 11:00:19;;;;;;;15.07;10.23;;;20.50;99.90;;;;;;5046562;28;20072;-55
2022/09/10 11:02:49;;;;;;;11.50;9.57;;;20.80;99.90;;;;;;5045108;28;20139;-55
2022/09/10 11:05:30;;;;;;;11.57;7.63;;;21.00;99.90;;;;;;5045621;28;20464;-57
2022/09/10 11:08:01;;;;;;;9.52;7.88;;;21.10;99.90;;;;;;5045274;28;20084;-57
2022/09/10 11:10:45;;;;;;;8.57;6.63;;;21.20;99.90;;;;;;5044479;28;20045;-57
2022/09/10 11:13:26;;;;;;;9.00;7.22;;;21.20;99.90;;;;;;5044910;28;20448;-56
2022/09/10 11:16:08;;;;;;;10.57;8.32;;;21.30;99.90;;;;;;5045280;28;20135;-56
2022/09/10 11:18:49;;;;;;;12.13;7.30;;;21.40;99.90;;;;;;5044250;28;20044;-56
2022/09/10 11:21:40;;;;;;;12.25;8.30;;;21.50;99.90;;;;;;5043752;28;20388;-56
2022/09/10 11:24:32;;;;;;;11.50;8.18;;;21.60;99.90;;;;;;5044024;28;20502;-56
2022/09/10 11:27:16;;;;;;;9.52;7.38;;;21.70;99.90;;;;;;5044466;28;20053;-56
2022/09/10 11:30:02;;;;;;;10.45;7.20;;;21.70;99.90;;;;;;5044156;28;20249;-56
2022/09/10 11:32:41;;;;;;;9.02;6.63;;;21.60;99.90;;;;;;5044171;28;20098;-56
2022/09/10 11:35:15;;;;;;;9.00;7.30;;;21.60;99.90;;;;;;5044258;28;20550;-56
2022/09/10 11:38:09;;;;;;;12.27;8.20;;;21.60;99.90;;;;;;5044161;28;20052;-57
2022/09/10 11:40:57;;;;;;;12.00;8.23;;;21.50;99.90;;;;;;5043858;28;20041;-56
2022/09/10 11:43:36;;;;;;;12.82;7.43;;;21.40;99.90;;;;;;5044583;28;20152;-56
2022/09/10 11:46:10;;;;;;;10.73;7.05;;;21.30;99.90;;;;;;5044785;28;20501;-56
2022/09/10 11:48:49;;;;;;;9.65;6.47;;;21.20;99.90;;;;;;5044370;28;20056;-56
2022/09/10 11:51:29;;;;;;;9.93;7.13;;;21.20;99.90;;;;;;5044390;28;20045;-56
2022/09/10 11:53:55;;;;;;;8.30;6.47;;;21.30;99.90;;;;;;5044260;28;20040;-56
2022/09/10 11:57:02;;;;;;;11.63;6.90;;;21.30;99.90;;;;;;5044205;28;20045;-56
2022/09/10 11:59:59;;;;;;;9.30;6.30;;;21.30;99.90;;;;;;5041077;28;20391;-56
2022/09/10 12:02:51;;;;;;;7.93;5.93;;;21.40;99.90;;;;;;5044080;28;20142;-56
2022/09/10 12:05:42;;;;;;;8.38;5.95;;;21.50;99.90;;;;;;5047793;28;20119;-56
2022/09/10 12:08:44;;;;;;;8.63;5.97;;;21.50;99.90;;;;;;5047630;28;20040;-56
2022/09/10 12:11:27;;;;;;;8.05;5.38;;;21.50;99.90;;;;;;5046544;28;20128;-56
2022/09/10 12:13:53;;;;;;;8.48;5.45;;;21.60;99.90;;;;;;5047677;28;20487;-57
2022/09/10 12:16:35;;;;;;;8.43;5.60;;;21.60;99.90;;;;;;5047587;28;20041;-56
2022/09/10 12:19:05;;;;;;;6.72;5.68;;;21.70;99.90;;;;;;5047784;28;20479;-56
2022/09/10 12:21:46;;;;;;;9.45;5.72;;;21.70;99.90;;;;;;5047077;28;20060;-56
2022/09/10 12:24:32;;;;;;;12.10;6.67;;;21.70;99.90;;;;;;5047577;28;20151;-56
2022/09/10 12:27:02;;;;;;;8.85;6.47;;;21.50;99.90;;;;;;5047611;28;20418;-56
2022/09/10 12:29:29;;;;;;;6.80;5.45;;;21.40;99.90;;;;;;5047927;28;20156;-56
2022/09/10 12:32:21;;;;;;;8.93;5.88;;;21.30;99.90;;;;;;5047124;28;20079;-57
2022/09/10 12:35:07;;;;;;;9.57;7.20;;;21.30;99.90;;;;;;5045495;28;20080;-58
2022/09/10 12:37:33;;;;;;;11.45;8.30;;;21.20;99.90;;;;;;5046744;28;20049;-56
2022/09/10 12:40:27;;;;;;;10.70;7.10;;;21.30;99.90;;;;;;5047119;28;20632;-57
2022/09/10 12:43:17;;;;;;;9.68;6.60;;;21.40;99.90;;;;;;5046504;28;20557;-57
2022/09/10 12:46:07;;;;;;;9.02;7.00;;;21.40;99.90;;;;;;5046467;28;20080;-57
2022/09/10 12:48:36;;;;;;;9.48;7.18;;;21.30;99.90;;;;;;5046978;28;20375;-56
2022/09/10 12:51:16;;;;;;;8.85;6.88;;;21.20;99.90;;;;;;5048630;28;20102;-56